sensor_id;sensor_type;location;lat;lon;timestamp;temperature;humidity
32095;DHT22;18608;53.688;10.748;2024-02-23T00:29:36;9.80;99.90
32095;DHT22;18608;53.688;10.748;2024-02-23T00:44:15;9.70;99.90
32095;DHT22;18608;53.688;10.748;2024-02-23T00:46:41;9.60;99.90
32095;DHT22;18608;53.688;10.748;2024-02-23T01:37:53;7.70;99.90
32095;DHT22;18608;53.688;10.748;2024-02-23T01:54:56;6.20;99.90
32095;DHT22;18608;53.688;10.748;2024-02-23T01:57:23;6.30;99.90
32095;DHT22;18608;53.688;10.748;2024-02-23T01:59:49;6.40;99.90
32095;DHT22;18608;53.688;10.748;2024-02-23T02:02:15;6.30;99.90
32095;DHT22;18608;53.688;10.748;2024-02-23T02:04:42;6.30;99.90
32095;DHT22;18608;53.688;10.748;2024-02-23T02:19:21;6.40;99.90
32095;DHT22;18608;53.688;10.748;2024-02-23T02:24:13;6.40;99.90
32095;DHT22;18608;53.688;10.748;2024-02-23T02:31:30;6.30;50.20
32095;DHT22;18608;53.688;10.748;2024-02-23T02:41:23;6.30;1.00
32095;DHT22;18608;53.688;10.748;2024-02-23T02:43:49;6.30;1.00
32095;DHT22;18608;53.688;10.748;2024-02-23T02:58:25;6.40;1.00
32095;DHT22;18608;53.688;10.748;2024-02-23T03:08:09;6.60;1.00
32095;DHT22;18608;53.688;10.748;2024-02-23T03:17:55;6.30;99.90
32095;DHT22;18608;53.688;10.748;2024-02-23T03:30:06;6.10;99.90
32095;DHT22;18608;53.688;10.748;2024-02-23T03:35:05;6.00;99.90
32095;DHT22;18608;53.688;10.748;2024-02-23T03:37:31;6.00;99.90
32095;DHT22;18608;53.688;10.748;2024-02-23T03:39:57;6.00;1.00
32095;DHT22;18608;53.688;10.748;2024-02-23T03:42:23;6.00;1.00
32095;DHT22;18608;53.688;10.748;2024-02-23T03:49:40;6.00;1.00
32095;DHT22;18608;53.688;10.748;2024-02-23T03:52:06;5.90;45.50
32095;DHT22;18608;53.688;10.748;2024-02-23T03:54:32;5.90;99.90
32095;DHT22;18608;53.688;10.748;2024-02-23T03:56:58;5.90;99.90
32095;DHT22;18608;53.688;10.748;2024-02-23T03:59:24;5.90;99.90
32095;DHT22;18608;53.688;10.748;2024-02-23T04:01:49;5.80;99.90
32095;DHT22;18608;53.688;10.748;2024-02-23T04:04:15;5.80;99.90
32095;DHT22;18608;53.688;10.748;2024-02-23T04:06:41;5.80;1.00
32095;DHT22;18608;53.688;10.748;2024-02-23T04:09:06;5.80;99.90
32095;DHT22;18608;53.688;10.748;2024-02-23T04:11:34;5.80;1.00
32095;DHT22;18608;53.688;10.748;2024-02-23T04:13:59;5.80;1.00
32095;DHT22;18608;53.688;10.748;2024-02-23T04:16:26;5.80;99.90
32095;DHT22;18608;53.688;10.748;2024-02-23T04:18:53;5.70;1.00
32095;DHT22;18608;53.688;10.748;2024-02-23T04:21:19;5.70;99.90
32095;DHT22;18608;53.688;10.748;2024-02-23T04:23:45;5.70;1.00
32095;DHT22;18608;53.688;10.748;2024-02-23T04:26:10;4.50;1.00
32095;DHT22;18608;53.688;10.748;2024-02-23T04:28:42;5.50;1.00
32095;DHT22;18608;53.688;10.748;2024-02-23T04:31:08;5.50;1.00
32095;DHT22;18608;53.688;10.748;2024-02-23T04:33:35;5.40;1.00
32095;DHT22;18608;53.688;10.748;2024-02-23T04:36:02;5.40;1.00
32095;DHT22;18608;53.688;10.748;2024-02-23T04:38:29;5.30;1.00
32095;DHT22;18608;53.688;10.748;2024-02-23T04:40:55;5.20;1.00
32095;DHT22;18608;53.688;10.748;2024-02-23T04:43:22;5.20;1.00
32095;DHT22;18608;53.688;10.748;2024-02-23T04:45:48;5.30;1.00
32095;DHT22;18608;53.688;10.748;2024-02-23T04:48:14;5.20;1.00
32095;DHT22;18608;53.688;10.748;2024-02-23T04:50:40;5.10;1.00
32095;DHT22;18608;53.688;10.748;2024-02-23T04:53:05;5.10;1.00
32095;DHT22;18608;53.688;10.748;2024-02-23T04:55:31;5.00;1.00
32095;DHT22;18608;53.688;10.748;2024-02-23T04:57:57;5.10;1.00
32095;DHT22;18608;53.688;10.748;2024-02-23T05:00:22;5.10;1.00
32095;DHT22;18608;53.688;10.748;2024-02-23T05:02:48;5.10;1.00
32095;DHT22;18608;53.688;10.748;2024-02-23T05:05:14;5.00;1.00
32095;DHT22;18608;53.688;10.748;2024-02-23T05:07:40;5.10;1.00
32095;DHT22;18608;53.688;10.748;2024-02-23T05:10:06;5.10;1.00
32095;DHT22;18608;53.688;10.748;2024-02-23T05:12:32;5.10;1.00
32095;DHT22;18608;53.688;10.748;2024-02-23T05:14:58;5.10;1.00
32095;DHT22;18608;53.688;10.748;2024-02-23T05:17:23;5.10;1.00
32095;DHT22;18608;53.688;10.748;2024-02-23T05:19:49;5.10;1.00
32095;DHT22;18608;53.688;10.748;2024-02-23T05:22:15;5.10;1.00
32095;DHT22;18608;53.688;10.748;2024-02-23T05:29:32;5.20;1.00
32095;DHT22;18608;53.688;10.748;2024-02-23T05:31:59;5.20;1.00
32095;DHT22;18608;53.688;10.748;2024-02-23T05:39:16;5.30;99.90
32095;DHT22;18608;53.688;10.748;2024-02-23T05:41:43;5.80;99.90
32095;DHT22;18608;53.688;10.748;2024-02-23T05:46:36;5.30;99.90
32095;DHT22;18608;53.688;10.748;2024-02-23T05:51:29;5.20;99.90
32095;DHT22;18608;53.688;10.748;2024-02-23T05:53:55;5.20;99.90
32095;DHT22;18608;53.688;10.748;2024-02-23T05:56:21;5.20;99.90
32095;DHT22;18608;53.688;10.748;2024-02-23T06:01:13;5.20;1.00
32095;DHT22;18608;53.688;10.748;2024-02-23T06:06:08;5.20;60.80
32095;DHT22;18608;53.688;10.748;2024-02-23T06:08:34;5.20;99.90
32095;DHT22;18608;53.688;10.748;2024-02-23T06:23:11;5.20;1.00
32095;DHT22;18608;53.688;10.748;2024-02-23T06:25:37;5.20;1.00
32095;DHT22;18608;53.688;10.748;2024-02-23T06:35:20;5.20;1.00
32095;DHT22;18608;53.688;10.748;2024-02-23T06:45:06;5.30;99.90
32095;DHT22;18608;53.688;10.748;2024-02-23T06:47:33;5.30;99.90
32095;DHT22;18608;53.688;10.748;2024-02-23T06:52:24;5.30;99.90
32095;DHT22;18608;53.688;10.748;2024-02-23T06:54:51;5.20;99.90
32095;DHT22;18608;53.688;10.748;2024-02-23T07:04:35;5.30;99.90
32095;DHT22;18608;53.688;10.748;2024-02-23T07:09:33;5.40;99.90
32095;DHT22;18608;53.688;10.748;2024-02-23T07:11:59;5.40;99.90
32095;DHT22;18608;53.688;10.748;2024-02-23T07:14:25;5.60;1.00
32095;DHT22;18608;53.688;10.748;2024-02-23T07:24:13;5.60;1.00
32095;DHT22;18608;53.688;10.748;2024-02-23T07:33:57;5.60;1.00
32095;DHT22;18608;53.688;10.748;2024-02-23T07:36:23;5.60;1.00
32095;DHT22;18608;53.688;10.748;2024-02-23T07:41:15;5.80;1.00
32095;DHT22;18608;53.688;10.748;2024-02-23T07:51:05;6.10;99.90
32095;DHT22;18608;53.688;10.748;2024-02-23T07:55:58;6.20;28.20
32095;DHT22;18608;53.688;10.748;2024-02-23T07:58:25;6.10;1.00
32095;DHT22;18608;53.688;10.748;2024-02-23T08:00:52;6.00;1.00
32095;DHT22;18608;53.688;10.748;2024-02-23T08:05:44;6.10;1.00
32095;DHT22;18608;53.688;10.748;2024-02-23T08:27:40;7.20;99.90
32095;DHT22;18608;53.688;10.748;2024-02-23T08:37:27;7.50;1.00
32095;DHT22;18608;53.688;10.748;2024-02-23T09:23:44;7.40;1.00
32095;DHT22;18608;53.688;10.748;2024-02-23T09:35:57;7.10;1.00
32095;DHT22;18608;53.688;10.748;2024-02-23T09:45:45;7.10;1.00
32095;DHT22;18608;53.688;10.748;2024-02-23T09:48:13;7.10;1.00
32095;DHT22;18608;53.688;10.748;2024-02-23T09:50:40;7.20;1.00
32095;DHT22;18608;53.688;10.748;2024-02-23T09:53:07;7.20;1.00
32095;DHT22;18608;53.688;10.748;2024-02-23T09:55:36;7.00;1.00
32095;DHT22;18608;53.688;10.748;2024-02-23T10:00:29;7.20;99.90
32095;DHT22;18608;53.688;10.748;2024-02-23T10:02:56;7.20;1.00
32095;DHT22;18608;53.688;10.748;2024-02-23T10:05:23;7.20;1.00
32095;DHT22;18608;53.688;10.748;2024-02-23T10:10:33;7.40;99.90
32095;DHT22;18608;53.688;10.748;2024-02-23T10:13:00;7.50;99.90
32095;DHT22;18608;53.688;10.748;2024-02-23T10:15:28;7.60;1.00
32095;DHT22;18608;53.688;10.748;2024-02-23T10:27:41;7.70;99.90
32095;DHT22;18608;53.688;10.748;2024-02-23T10:30:10;7.50;93.00
32095;DHT22;18608;53.688;10.748;2024-02-23T10:32:41;7.50;99.90
32095;DHT22;18608;53.688;10.748;2024-02-23T10:35:16;7.60;99.90
32095;DHT22;18608;53.688;10.748;2024-02-23T10:37:43;7.70;99.90
32095;DHT22;18608;53.688;10.748;2024-02-23T10:40:13;7.70;1.00
32095;DHT22;18608;53.688;10.748;2024-02-23T10:42:41;7.80;1.00
32095;DHT22;18608;53.688;10.748;2024-02-23T10:50:03;8.20;1.00
32095;DHT22;18608;53.688;10.748;2024-02-23T10:52:31;8.10;1.00
32095;DHT22;18608;53.688;10.748;2024-02-23T10:54:57;8.00;99.90
32095;DHT22;18608;53.688;10.748;2024-02-23T10:57:26;8.20;99.90
32095;DHT22;18608;53.688;10.748;2024-02-23T11:02:19;8.70;22.40
32095;DHT22;18608;53.688;10.748;2024-02-23T11:04:47;8.90;50.30
32095;DHT22;18608;53.688;10.748;2024-02-23T11:07:19;9.00;1.00
32095;DHT22;18608;53.688;10.748;2024-02-23T11:09:49;9.00;1.00
32095;DHT22;18608;53.688;10.748;2024-02-23T11:12:23;8.70;1.00
32095;DHT22;18608;53.688;10.748;2024-02-23T11:17:20;8.60;1.00
32095;DHT22;18608;53.688;10.748;2024-02-23T11:19:48;8.40;1.00
32095;DHT22;18608;53.688;10.748;2024-02-23T11:24:44;8.70;1.00
32095;DHT22;18608;53.688;10.748;2024-02-23T11:27:14;8.60;1.00
32095;DHT22;18608;53.688;10.748;2024-02-23T11:29:43;8.50;1.00
32095;DHT22;18608;53.688;10.748;2024-02-23T11:32:17;8.60;1.00
32095;DHT22;18608;53.688;10.748;2024-02-23T11:34:54;8.50;1.00
32095;DHT22;18608;53.688;10.748;2024-02-23T11:39:49;8.40;1.00
32095;DHT22;18608;53.688;10.748;2024-02-23T11:59:20;8.40;1.00
32095;DHT22;18608;53.688;10.748;2024-02-23T12:01:46;8.60;1.00
32095;DHT22;18608;53.688;10.748;2024-02-23T12:04:14;8.80;1.00
32095;DHT22;18608;53.688;10.748;2024-02-23T12:06:40;8.70;1.00
32095;DHT22;18608;53.688;10.748;2024-02-23T12:14:00;8.80;1.00
32095;DHT22;18608;53.688;10.748;2024-02-23T12:18:55;8.90;1.00
32095;DHT22;18608;53.688;10.748;2024-02-23T12:23:48;8.80;1.00
32095;DHT22;18608;53.688;10.748;2024-02-23T12:26:16;8.70;1.00
32095;DHT22;18608;53.688;10.748;2024-02-23T12:28:43;8.80;1.00
32095;DHT22;18608;53.688;10.748;2024-02-23T12:31:09;8.70;1.00
32095;DHT22;18608;53.688;10.748;2024-02-23T12:33:36;8.80;1.00
32095;DHT22;18608;53.688;10.748;2024-02-23T12:36:03;8.80;1.00
32095;DHT22;18608;53.688;10.748;2024-02-23T12:38:29;8.90;1.00
32095;DHT22;18608;53.688;10.748;2024-02-23T12:48:16;9.00;1.00
32095;DHT22;18608;53.688;10.748;2024-02-23T12:55:36;8.70;1.00
32095;DHT22;18608;53.688;10.748;2024-02-23T13:02:54;8.60;1.00
32095;DHT22;18608;53.688;10.748;2024-02-23T13:05:20;8.50;1.00
32095;DHT22;18608;53.688;10.748;2024-02-23T13:07:47;8.50;1.00
32095;DHT22;18608;53.688;10.748;2024-02-23T14:16:00;8.60;1.00
32095;DHT22;18608;53.688;10.748;2024-02-23T14:23:19;8.50;1.00
32095;DHT22;18608;53.688;10.748;2024-02-23T14:25:45;8.40;1.00
32095;DHT22;18608;53.688;10.748;2024-02-23T15:02:21;8.30;1.00
32095;DHT22;18608;53.688;10.748;2024-02-23T15:12:06;8.30;1.00
32095;DHT22;18608;53.688;10.748;2024-02-23T15:16:58;8.20;1.00
32095;DHT22;18608;53.688;10.748;2024-02-23T15:29:11;8.40;1.00
32095;DHT22;18608;53.688;10.748;2024-02-23T15:34:05;7.90;1.00
32095;DHT22;18608;53.688;10.748;2024-02-23T15:41:27;8.40;1.00
32095;DHT22;18608;53.688;10.748;2024-02-23T15:58:29;8.10;1.00
32095;DHT22;18608;53.688;10.748;2024-02-23T16:00:55;8.20;1.00
32095;DHT22;18608;53.688;10.748;2024-02-23T16:03:21;8.00;1.00
32095;DHT22;18608;53.688;10.748;2024-02-23T16:10:39;8.00;1.00
32095;DHT22;18608;53.688;10.748;2024-02-23T16:15:32;8.10;1.00
32095;DHT22;18608;53.688;10.748;2024-02-23T16:25:18;8.10;1.00
32095;DHT22;18608;53.688;10.748;2024-02-23T16:30:11;8.00;1.00
32095;DHT22;18608;53.688;10.748;2024-02-23T16:35:04;8.00;1.00
32095;DHT22;18608;53.688;10.748;2024-02-23T16:37:30;8.00;1.00
32095;DHT22;18608;53.688;10.748;2024-02-23T17:14:04;7.60;1.00
32095;DHT22;18608;53.688;10.748;2024-02-23T17:21:23;7.70;1.00
32095;DHT22;18608;53.688;10.748;2024-02-23T17:26:15;7.70;1.00
32095;DHT22;18608;53.688;10.748;2024-02-23T17:33:34;7.60;1.00
32095;DHT22;18608;53.688;10.748;2024-02-23T17:55:31;7.40;1.00
32095;DHT22;18608;53.688;10.748;2024-02-23T18:10:07;7.00;1.00
32095;DHT22;18608;53.688;10.748;2024-02-23T18:14:59;7.20;1.00
32095;DHT22;18608;53.688;10.748;2024-02-23T18:19:51;7.00;1.00
32095;DHT22;18608;53.688;10.748;2024-02-23T18:32:01;7.00;16.50
32095;DHT22;18608;53.688;10.748;2024-02-23T18:44:13;6.90;99.90
32095;DHT22;18608;53.688;10.748;2024-02-23T18:56:24;7.00;99.90
32095;DHT22;18608;53.688;10.748;2024-02-23T19:01:16;6.60;99.90
32095;DHT22;18608;53.688;10.748;2024-02-23T19:13:26;6.70;99.90
32095;DHT22;18608;53.688;10.748;2024-02-23T19:20:45;6.70;99.90
32095;DHT22;18608;53.688;10.748;2024-02-23T19:23:11;6.60;99.90
32095;DHT22;18608;53.688;10.748;2024-02-23T19:32:55;6.50;1.00
32095;DHT22;18608;53.688;10.748;2024-02-23T19:35:21;6.40;1.00
32095;DHT22;18608;53.688;10.748;2024-02-23T19:37:46;6.40;1.00
32095;DHT22;18608;53.688;10.748;2024-02-23T19:40:12;6.40;1.00
32095;DHT22;18608;53.688;10.748;2024-02-23T19:45:07;6.30;35.20
32095;DHT22;18608;53.688;10.748;2024-02-23T19:47:32;6.40;1.00
32095;DHT22;18608;53.688;10.748;2024-02-23T19:52:25;6.30;99.90
32095;DHT22;18608;53.688;10.748;2024-02-23T19:54:51;6.30;99.90
32095;DHT22;18608;53.688;10.748;2024-02-23T19:59:43;6.40;99.90
32095;DHT22;18608;53.688;10.748;2024-02-23T20:02:09;6.20;99.90
32095;DHT22;18608;53.688;10.748;2024-02-23T20:04:41;6.30;99.90
32095;DHT22;18608;53.688;10.748;2024-02-23T20:07:08;6.20;99.90
32095;DHT22;18608;53.688;10.748;2024-02-23T20:09:38;6.20;99.90
32095;DHT22;18608;53.688;10.748;2024-02-23T20:12:04;6.20;99.90
32095;DHT22;18608;53.688;10.748;2024-02-23T20:14:30;6.10;99.90
32095;DHT22;18608;53.688;10.748;2024-02-23T20:16:56;6.20;99.90
32095;DHT22;18608;53.688;10.748;2024-02-23T20:19:22;6.20;99.90
32095;DHT22;18608;53.688;10.748;2024-02-23T20:21:48;6.10;1.00
32095;DHT22;18608;53.688;10.748;2024-02-23T20:24:14;6.10;1.00
32095;DHT22;18608;53.688;10.748;2024-02-23T20:26:39;6.10;1.00
32095;DHT22;18608;53.688;10.748;2024-02-23T20:29:07;6.10;1.00
32095;DHT22;18608;53.688;10.748;2024-02-23T20:31:33;6.10;99.90
32095;DHT22;18608;53.688;10.748;2024-02-23T20:34:03;6.00;94.40
32095;DHT22;18608;53.688;10.748;2024-02-23T20:36:29;6.00;27.70
32095;DHT22;18608;53.688;10.748;2024-02-23T20:38:54;6.00;96.10
32095;DHT22;18608;53.688;10.748;2024-02-23T20:41:20;6.00;1.00
32095;DHT22;18608;53.688;10.748;2024-02-23T20:43:48;6.00;1.00
32095;DHT22;18608;53.688;10.748;2024-02-23T20:46:14;6.00;1.00
32095;DHT22;18608;53.688;10.748;2024-02-23T20:48:40;6.00;1.00
32095;DHT22;18608;53.688;10.748;2024-02-23T20:51:05;6.00;1.00
32095;DHT22;18608;53.688;10.748;2024-02-23T20:53:33;6.00;1.00
32095;DHT22;18608;53.688;10.748;2024-02-23T20:55:59;6.00;1.00
32095;DHT22;18608;53.688;10.748;2024-02-23T20:58:24;5.90;1.00
32095;DHT22;18608;53.688;10.748;2024-02-23T21:00:50;6.00;60.80
32095;DHT22;18608;53.688;10.748;2024-02-23T21:03:16;6.10;99.90
32095;DHT22;18608;53.688;10.748;2024-02-23T21:05:46;6.10;86.40
32095;DHT22;18608;53.688;10.748;2024-02-23T21:08:12;6.10;99.90
32095;DHT22;18608;53.688;10.748;2024-02-23T21:10:40;6.10;1.00
32095;DHT22;18608;53.688;10.748;2024-02-23T21:13:06;6.70;99.90
32095;DHT22;18608;53.688;10.748;2024-02-23T21:15:32;5.90;99.90
32095;DHT22;18608;53.688;10.748;2024-02-23T21:17:58;5.90;99.90
32095;DHT22;18608;53.688;10.748;2024-02-23T21:20:23;5.90;99.90
32095;DHT22;18608;53.688;10.748;2024-02-23T21:22:50;6.00;99.90
32095;DHT22;18608;53.688;10.748;2024-02-23T21:25:16;6.00;1.00
32095;DHT22;18608;53.688;10.748;2024-02-23T21:27:42;5.90;1.00
32095;DHT22;18608;53.688;10.748;2024-02-23T21:30:08;5.80;1.00
32095;DHT22;18608;53.688;10.748;2024-02-23T21:32:35;5.70;99.90
32095;DHT22;18608;53.688;10.748;2024-02-23T21:35:01;5.70;99.90
32095;DHT22;18608;53.688;10.748;2024-02-23T21:37:27;5.70;99.90
32095;DHT22;18608;53.688;10.748;2024-02-23T21:39:52;5.70;87.90
32095;DHT22;18608;53.688;10.748;2024-02-23T21:42:18;5.70;1.00
32095;DHT22;18608;53.688;10.748;2024-02-23T21:44:44;5.70;1.00
32095;DHT22;18608;53.688;10.748;2024-02-23T21:47:10;5.70;99.90
32095;DHT22;18608;53.688;10.748;2024-02-23T21:49:35;5.80;1.00
32095;DHT22;18608;53.688;10.748;2024-02-23T21:52:03;5.80;1.00
32095;DHT22;18608;53.688;10.748;2024-02-23T21:54:31;5.70;1.00
32095;DHT22;18608;53.688;10.748;2024-02-23T21:56:57;5.60;27.40
32095;DHT22;18608;53.688;10.748;2024-02-23T21:59:28;5.70;99.90
32095;DHT22;18608;53.688;10.748;2024-02-23T22:01:57;5.70;99.90
32095;DHT22;18608;53.688;10.748;2024-02-23T22:04:30;5.70;99.90
32095;DHT22;18608;53.688;10.748;2024-02-23T22:06:56;5.60;99.90
32095;DHT22;18608;53.688;10.748;2024-02-23T22:09:22;5.60;6.90
32095;DHT22;18608;53.688;10.748;2024-02-23T22:11:48;5.70;99.90
32095;DHT22;18608;53.688;10.748;2024-02-23T22:14:13;5.60;1.00
32095;DHT22;18608;53.688;10.748;2024-02-23T22:16:39;5.60;1.00
32095;DHT22;18608;53.688;10.748;2024-02-23T22:19:06;5.50;1.00
32095;DHT22;18608;53.688;10.748;2024-02-23T22:21:31;5.50;5.20
32095;DHT22;18608;53.688;10.748;2024-02-23T22:23:57;5.50;1.00
32095;DHT22;18608;53.688;10.748;2024-02-23T22:26:23;5.40;1.00
32095;DHT22;18608;53.688;10.748;2024-02-23T22:28:48;5.30;1.00
32095;DHT22;18608;53.688;10.748;2024-02-23T22:31:14;5.20;1.00
32095;DHT22;18608;53.688;10.748;2024-02-23T22:33:40;5.20;1.00
32095;DHT22;18608;53.688;10.748;2024-02-23T22:36:06;5.20;99.90
32095;DHT22;18608;53.688;10.748;2024-02-23T22:38:31;5.10;1.00
32095;DHT22;18608;53.688;10.748;2024-02-23T22:40:57;5.10;72.40
32095;DHT22;18608;53.688;10.748;2024-02-23T22:43:23;5.20;99.90
32095;DHT22;18608;53.688;10.748;2024-02-23T22:45:50;5.10;22.40
32095;DHT22;18608;53.688;10.748;2024-02-23T22:48:18;5.20;99.90
32095;DHT22;18608;53.688;10.748;2024-02-23T22:50:44;5.10;1.00
32095;DHT22;18608;53.688;10.748;2024-02-23T22:53:10;5.10;99.90
32095;DHT22;18608;53.688;10.748;2024-02-23T22:55:36;5.00;1.00
32095;DHT22;18608;53.688;10.748;2024-02-23T22:58:02;5.10;99.90
32095;DHT22;18608;53.688;10.748;2024-02-23T23:00:28;5.00;1.00
32095;DHT22;18608;53.688;10.748;2024-02-23T23:02:53;4.90;23.70
32095;DHT22;18608;53.688;10.748;2024-02-23T23:05:19;5.00;1.00
32095;DHT22;18608;53.688;10.748;2024-02-23T23:07:49;5.00;1.00
32095;DHT22;18608;53.688;10.748;2024-02-23T23:10:15;4.90;1.00
32095;DHT22;18608;53.688;10.748;2024-02-23T23:12:40;4.80;99.90
32095;DHT22;18608;53.688;10.748;2024-02-23T23:15:06;4.70;1.00
32095;DHT22;18608;53.688;10.748;2024-02-23T23:17:32;4.70;1.00
32095;DHT22;18608;53.688;10.748;2024-02-23T23:19:57;4.60;1.00
32095;DHT22;18608;53.688;10.748;2024-02-23T23:22:32;4.60;1.00
32095;DHT22;18608;53.688;10.748;2024-02-23T23:24:58;4.50;1.00
32095;DHT22;18608;53.688;10.748;2024-02-23T23:27:24;4.50;1.00
32095;DHT22;18608;53.688;10.748;2024-02-23T23:29:50;4.50;1.00
32095;DHT22;18608;53.688;10.748;2024-02-23T23:32:15;4.50;1.00
32095;DHT22;18608;53.688;10.748;2024-02-23T23:34:44;4.50;1.00
32095;DHT22;18608;53.688;10.748;2024-02-23T23:37:09;4.50;1.00
32095;DHT22;18608;53.688;10.748;2024-02-23T23:39:35;4.40;1.00
32095;DHT22;18608;53.688;10.748;2024-02-23T23:42:01;4.40;62.00
32095;DHT22;18608;53.688;10.748;2024-02-23T23:44:27;4.30;99.90
32095;DHT22;18608;53.688;10.748;2024-02-23T23:46:52;4.30;99.90
32095;DHT22;18608;53.688;10.748;2024-02-23T23:49:18;4.30;99.90
32095;DHT22;18608;53.688;10.748;2024-02-23T23:51:44;4.20;99.90
32095;DHT22;18608;53.688;10.748;2024-02-23T23:54:09;4.20;99.90
32095;DHT22;18608;53.688;10.748;2024-02-23T23:56:35;4.30;99.90
32095;DHT22;18608;53.688;10.748;2024-02-23T23:59:01;4.20;99.90
